Terminal Aerodrome Forecast
Issued by NWS Twin Cities, MN

Home | Current Version | Previous Version | Text Only | Print | Product List | Glossary On
Versions: 1 2 3 4 5 6 7 8 9 10 11 12 13 14 15 16 17 18 19 20 21
000
FTUS43 KMPX 292013 AAA
TAFEAU
TAF AMD
KEAU 292013Z 2920/3018 25010G18KT 6SM -SHRA BR VCTS BKN025 OVC040CB
      TEMPO 2920/2923 5SM -TSRA
     FM300000 36009KT 4SM -SHRA BR OVC015
     FM300400 36012G20KT P6SM BKN015 OVC030
     FM301400 02012G20KT P6SM BKN025
     FM301700 02010G17KT P6SM SCT030 SCT250=

USA.gov is the U.S. government's official web portal to all federal, state and local government web resources and services.